Time;durP1;ratioP1;P1;durP2;ratioP2;P2;SDS_P1;SDS_P2;PMS_P1;PMS_P2;Temp;Humidity;BMP_temperature;BMP_pressure;BME280_temperature;BME280_humidity;BME280_pressure;Samples;Min_cycle;Max_cycle;Signal;HPM_P1;HPM_P2
2022/01/31 00:02:21;;;;;;;;;;;4.70;99.90;;;;;;5073187;28;19939;-77
2022/01/31 00:04:47;;;;;;;;;;;4.80;99.90;;;;;;5074754;28;20245;-77
2022/01/31 00:07:12;;;;;;;;;;;4.80;99.90;;;;;;5074715;28;20015;-77
2022/01/31 00:09:40;;;;;;;;;;;4.70;99.90;;;;;;5073372;28;19932;-77
2022/01/31 00:12:10;;;;;;;;;;;4.70;99.90;;;;;;5110399;28;19925;-77
2022/01/31 00:14:43;;;;;;;;;;;4.70;99.90;;;;;;5076434;28;19931;-77
2022/01/31 00:17:10;;;;;;;;;;;4.70;99.90;;;;;;5076386;28;19971;-81
2022/01/31 00:19:36;;;;;;;;;;;4.70;99.90;;;;;;5075453;28;20357;-77
2022/01/31 00:22:06;;;;;;;;;;;4.70;99.90;;;;;;5076450;28;19925;-76
2022/01/31 00:24:33;;;;;;;;;;;4.60;99.90;;;;;;5076200;28;19924;-76
2022/01/31 00:26:59;;;;;;;;;;;4.60;99.90;;;;;;5075928;28;20387;-76
2022/01/31 00:29:24;;;;;;;;;;;4.60;99.90;;;;;;5093830;28;19924;-77
2022/01/31 00:31:50;;;;;;;;;;;4.60;99.90;;;;;;5059357;28;19932;-77
2022/01/31 00:34:16;;;;;;;;;;;4.50;99.90;;;;;;5075310;28;19946;-79
2022/01/31 00:36:41;;;;;;;;;;;4.50;99.90;;;;;;5075306;28;19924;-77
2022/01/31 00:39:07;;;;;;;;;;;4.50;99.90;;;;;;5058344;28;19977;-77
2022/01/31 00:41:32;;;;;;;;;;;4.50;99.90;;;;;;5076050;28;19971;-76
2022/01/31 00:44:02;;;;;;;;;;;4.50;99.90;;;;;;5075798;28;19924;-76
2022/01/31 00:46:37;;;;;;;;;;;4.50;99.90;;;;;;5075670;28;19924;-76
2022/01/31 00:49:03;;;;;;;;;;;4.50;99.90;;;;;;5077206;28;19931;-77
2022/01/31 00:51:28;;;;;;;;;;;4.40;99.90;;;;;;5075469;28;19924;-79
2022/01/31 00:53:54;;;;;;;;;;;4.40;99.90;;;;;;5075856;28;19932;-77
2022/01/31 00:56:20;;;;;;;;;;;4.40;99.90;;;;;;5075612;28;19928;-77
2022/01/31 00:58:45;;;;;;;;;;;4.40;99.90;;;;;;5075556;28;19931;-77
2022/01/31 01:01:11;;;;;;;;;;;4.40;99.90;;;;;;5088555;28;20373;-78
2022/01/31 01:03:36;;;;;;;;;;;4.40;99.90;;;;;;5066065;28;19930;-77
2022/01/31 01:06:02;;;;;;;;;;;4.30;99.90;;;;;;5089099;28;20306;-77
2022/01/31 01:08:28;;;;;;;;;;;4.30;99.90;;;;;;5039304;28;19924;-76
2022/01/31 01:10:53;;;;;;;;;;;4.20;99.90;;;;;;5093272;28;19950;-77
2022/01/31 01:13:19;;;;;;;;;;;4.20;99.90;;;;;;5075758;28;20011;-76
2022/01/31 01:15:44;;;;;;;;;;;4.10;99.90;;;;;;5093215;28;20403;-77
2022/01/31 01:18:10;;;;;;;;;;;4.10;99.90;;;;;;5074932;28;19932;-78
2022/01/31 01:20:35;;;;;;;;;;;4.10;99.90;;;;;;5074147;28;19990;-78
2022/01/31 01:23:01;;;;;;;;;;;4.10;99.90;;;;;;5056290;28;19924;-78
2022/01/31 01:25:27;;;;;;;;;;;4.10;99.90;;;;;;5074027;28;19928;-77
2022/01/31 01:27:54;;;;;;;;;;;4.00;99.90;;;;;;5057835;28;20019;-77
2022/01/31 01:30:20;;;;;;;;;;;4.00;99.90;;;;;;5092808;28;19971;-78
2022/01/31 01:33:28;;;;;;;;;;;4.10;99.90;;;;;;5078961;28;20014;-77
2022/01/31 01:35:37;;;;;;;;;;;4.00;99.90;;;;;;5068482;28;19928;-78
2022/01/31 01:38:07;;;;;;;;;;;4.00;99.90;;;;;;5062540;28;19971;-78
2022/01/31 01:40:34;;;;;;;;;;;4.00;99.90;;;;;;5078833;28;19924;-78
2022/01/31 01:43:00;;;;;;;;;;;4.10;99.90;;;;;;5062123;28;20343;-78
2022/01/31 01:45:25;;;;;;;;;;;4.00;99.90;;;;;;5079153;28;19924;-77
2022/01/31 01:47:51;;;;;;;;;;;4.00;99.90;;;;;;5078165;28;20023;-78
2022/01/31 01:50:16;;;;;;;;;;;4.00;99.90;;;;;;5096882;28;19931;-78
2022/01/31 01:52:42;;;;;;;;;;;4.00;99.90;;;;;;5061153;28;20011;-78
2022/01/31 01:55:08;;;;;;;;;;;4.00;99.90;;;;;;5096045;28;19931;-77
2022/01/31 01:57:34;;;;;;;;;;;4.00;99.90;;;;;;5111890;28;19928;-84
2022/01/31 01:59:59;;;;;;;;;;;4.00;99.90;;;;;;5077815;28;19932;-77
2022/01/31 02:02:25;;;;;;;;;;;4.00;99.90;;;;;;5078561;28;19931;-77
2022/01/31 02:04:51;;;;;;;;;;;4.00;99.90;;;;;;5078484;28;19938;-77
2022/01/31 02:07:16;;;;;;;;;;;4.00;99.90;;;;;;5078776;28;19924;-77
2022/01/31 02:09:45;;;;;;;;;;;4.10;99.90;;;;;;5058476;28;19934;-77
2022/01/31 02:12:11;;;;;;;;;;;4.10;99.90;;;;;;5092373;28;20369;-77
2022/01/31 02:14:37;;;;;;;;;;;4.20;99.90;;;;;;5061825;28;19924;-78
2022/01/31 02:17:03;;;;;;;;;;;4.20;99.90;;;;;;5061845;28;19924;-77
2022/01/31 02:19:28;;;;;;;;;;;4.30;99.90;;;;;;5061941;28;19924;-77
2022/01/31 02:21:54;;;;;;;;;;;4.30;99.90;;;;;;5078658;28;19924;-76
2022/01/31 02:24:20;;;;;;;;;;;4.30;99.90;;;;;;5077885;28;19934;-77
2022/01/31 02:26:46;;;;;;;;;;;4.40;99.90;;;;;;5077877;28;19947;-76
2022/01/31 02:29:12;;;;;;;;;;;4.40;99.90;;;;;;5078029;28;19924;-77
2022/01/31 02:31:45;;;;;;;;;;;4.50;99.90;;;;;;5095097;28;20325;-84
2022/01/31 02:34:10;;;;;;;;;;;4.50;99.90;;;;;;5078012;28;19928;-77
2022/01/31 02:36:36;;;;;;;;;;;4.60;99.90;;;;;;5045235;28;20403;-77
2022/01/31 02:39:02;;;;;;;;;;;4.70;99.90;;;;;;5077536;28;19931;-77
2022/01/31 02:41:29;;;;;;;;;;;4.80;99.90;;;;;;5060908;28;19947;-76
2022/01/31 02:43:54;;;;;;;;;;;5.10;99.90;;;;;;5076330;28;20399;-78
2022/01/31 02:46:23;;;;;;;;;;;5.40;99.90;;;;;;5044374;28;19928;-77
2022/01/31 02:48:51;;;;;;;;;;;5.60;99.90;;;;;;5077131;28;19993;-76
2022/01/31 02:51:21;;;;;;;;;;;5.70;99.90;;;;;;5078209;28;19971;-76
2022/01/31 02:53:46;;;;;;;;;;;5.80;99.90;;;;;;5095942;28;19946;-76
2022/01/31 02:56:12;;;;;;;;;;;5.90;99.90;;;;;;5061463;28;20407;-75
2022/01/31 02:58:38;;;;;;;;;;;5.90;99.90;;;;;;5077923;28;19924;-76
2022/01/31 03:01:03;;;;;;;;;;;6.00;99.90;;;;;;5057353;28;19924;-76
2022/01/31 03:03:29;;;;;;;;;;;6.00;99.90;;;;;;5057802;28;19946;-76
2022/01/31 03:05:55;;;;;;;;;;;6.00;99.90;;;;;;5074481;28;19924;-76
2022/01/31 03:08:21;;;;;;;;;;;6.20;99.90;;;;;;5057675;28;20262;-77
2022/01/31 03:10:47;;;;;;;;;;;6.10;99.90;;;;;;5056996;28;19924;-76
2022/01/31 03:13:12;;;;;;;;;;;6.10;99.90;;;;;;5057318;28;19931;-76
2022/01/31 03:15:38;;;;;;;;;;;6.10;99.90;;;;;;5057671;28;20432;-76
2022/01/31 03:18:05;;;;;;;;;;;6.10;99.90;;;;;;5073236;28;19928;-75
2022/01/31 03:20:31;;;;;;;;;;;6.10;99.90;;;;;;5072610;28;20274;-76
2022/01/31 03:22:56;;;;;;;;;;;6.10;99.90;;;;;;5074037;28;19946;-76
2022/01/31 03:25:22;;;;;;;;;;;6.10;99.90;;;;;;5073900;28;19945;-76
2022/01/31 03:27:48;;;;;;;;;;;6.00;99.90;;;;;;5077450;28;20293;-77
2022/01/31 03:30:15;;;;;;;;;;;6.00;99.90;;;;;;5042368;28;19924;-76
2022/01/31 03:32:41;;;;;;;;;;;6.00;99.90;;;;;;5056422;28;19928;-76
2022/01/31 03:35:07;;;;;;;;;;;6.00;99.90;;;;;;5073740;28;19931;-78
2022/01/31 03:37:33;;;;;;;;;;;6.00;99.90;;;;;;5073818;28;19968;-76
2022/01/31 03:39:59;;;;;;;;;;;6.00;99.90;;;;;;5090668;28;20551;-76
2022/01/31 03:42:24;;;;;;;;;;;6.00;99.90;;;;;;5073707;28;19924;-76
2022/01/31 03:44:50;;;;;;;;;;;5.60;99.90;;;;;;5056661;28;19982;-76
2022/01/31 03:47:17;;;;;;;;;;;5.30;99.90;;;;;;5073821;28;20289;-77
2022/01/31 03:49:42;;;;;;;;;;;5.10;99.90;;;;;;5073539;28;20001;-77
2022/01/31 03:52:08;;;;;;;;;;;5.00;99.90;;;;;;5056380;28;19925;-78
2022/01/31 03:54:34;;;;;;;;;;;4.90;99.90;;;;;;5073540;28;19968;-76
2022/01/31 03:56:59;;;;;;;;;;;5.10;99.90;;;;;;5073411;28;19932;-76
2022/01/31 03:59:25;;;;;;;;;;;5.20;99.90;;;;;;5073207;28;19924;-77
2022/01/31 04:01:51;;;;;;;;;;;5.50;99.90;;;;;;5058981;28;19925;-78
2022/01/31 04:04:17;;;;;;;;;;;5.60;99.90;;;;;;5056552;28;19924;-77
2022/01/31 04:06:43;;;;;;;;;;;5.70;99.90;;;;;;5073455;28;19924;-77
2022/01/31 04:09:08;;;;;;;;;;;5.60;99.90;;;;;;5056424;28;20037;-76
2022/01/31 04:11:34;;;;;;;;;;;5.50;99.90;;;;;;5056533;28;20026;-77
2022/01/31 04:13:59;;;;;;;;;;;5.50;99.90;;;;;;5056401;28;19929;-75
2022/01/31 04:16:25;;;;;;;;;;;5.50;99.90;;;;;;5073400;28;20085;-77
2022/01/31 04:18:51;;;;;;;;;;;5.50;99.90;;;;;;5072949;28;19924;-79
2022/01/31 04:21:16;;;;;;;;;;;5.50;99.90;;;;;;5056525;28;20015;-77
2022/01/31 04:23:42;;;;;;;;;;;5.50;99.90;;;;;;5055493;28;19924;-76
2022/01/31 04:26:13;;;;;;;;;;;5.50;99.90;;;;;;5056443;28;19928;-76
2022/01/31 04:28:48;;;;;;;;;;;5.50;99.90;;;;;;5072893;28;19924;-76
2022/01/31 04:31:36;;;;;;;;;;;5.40;99.90;;;;;;5072933;28;20023;-78
2022/01/31 04:34:00;;;;;;;;;;;5.30;99.90;;;;;;5072344;28;19928;-78
2022/01/31 04:36:25;;;;;;;;;;;5.30;99.90;;;;;;5056210;28;19924;-77
2022/01/31 04:38:51;;;;;;;;;;;5.20;99.90;;;;;;5054606;28;20647;-76
2022/01/31 04:41:17;;;;;;;;;;;5.30;99.90;;;;;;5071944;28;19925;-76
2022/01/31 04:43:44;;;;;;;;;;;5.30;99.90;;;;;;5072106;28;19925;-77
2022/01/31 04:46:10;;;;;;;;;;;5.40;99.90;;;;;;5055036;28;19964;-77
2022/01/31 04:48:36;;;;;;;;;;;5.40;99.90;;;;;;5072072;28;20399;-78
2022/01/31 04:51:01;;;;;;;;;;;5.50;99.90;;;;;;5055187;28;20289;-77
2022/01/31 04:53:27;;;;;;;;;;;5.50;99.90;;;;;;5072166;28;20010;-76
2022/01/31 04:55:53;;;;;;;;;;;5.50;99.90;;;;;;5077769;28;20312;-76
2022/01/31 04:58:21;;;;;;;;;;;5.60;99.90;;;;;;5067864;28;20429;-76
2022/01/31 05:00:47;;;;;;;;;;;5.60;99.90;;;;;;5053358;28;19954;-77
2022/01/31 05:03:16;;;;;;;;;;;5.50;99.90;;;;;;5055599;28;19925;-78
2022/01/31 05:05:42;;;;;;;;;;;5.50;99.90;;;;;;5072372;28;19925;-79
2022/01/31 05:08:08;;;;;;;;;;;5.40;99.90;;;;;;5072202;28;19925;-79
2022/01/31 05:10:34;;;;;;;;;;;5.40;99.90;;;;;;5072709;28;19929;-78
2022/01/31 05:13:00;;;;;;;;;;;5.40;99.90;;;;;;5055569;28;19928;-78
2022/01/31 05:15:26;;;;;;;;;;;5.40;99.90;;;;;;5072615;28;19925;-76
2022/01/31 05:17:51;;;;;;;;;;;5.30;99.90;;;;;;5071652;28;19943;-77
2022/01/31 05:20:17;;;;;;;;;;;5.30;99.90;;;;;;5070987;28;19924;-77
2022/01/31 05:22:43;;;;;;;;;;;5.30;99.90;;;;;;5088500;28;19930;-78
2022/01/31 05:25:08;;;;;;;;;;;5.30;99.90;;;;;;5071628;28;19925;-76
2022/01/31 05:27:34;;;;;;;;;;;5.30;99.90;;;;;;5055534;28;19995;-77
2022/01/31 05:29:59;;;;;;;;;;;5.30;99.90;;;;;;5054051;28;19928;-78
2022/01/31 05:32:25;;;;;;;;;;;5.30;99.90;;;;;;5071412;28;19950;-76
2022/01/31 05:34:51;;;;;;;;;;;5.30;99.90;;;;;;5069633;28;19924;-77
2022/01/31 05:37:16;;;;;;;;;;;5.30;99.90;;;;;;5071850;28;19925;-76
2022/01/31 05:39:43;;;;;;;;;;;5.40;99.90;;;;;;5038704;28;20377;-77
2022/01/31 05:42:09;;;;;;;;;;;5.40;99.90;;;;;;5055486;28;19924;-76
2022/01/31 05:44:35;;;;;;;;;;;5.40;99.90;;;;;;5039095;28;19928;-76
2022/01/31 05:47:00;;;;;;;;;;;5.50;99.90;;;;;;5072054;28;19928;-79
2022/01/31 05:49:26;;;;;;;;;;;5.50;99.90;;;;;;5055075;28;19928;-77
2022/01/31 05:51:54;;;;;;;;;;;5.50;99.90;;;;;;5072198;28;19967;-77
2022/01/31 05:54:21;;;;;;;;;;;5.50;99.90;;;;;;5054889;28;19928;-76
2022/01/31 05:56:46;;;;;;;;;;;5.40;99.90;;;;;;5055492;28;20038;-77
2022/01/31 05:59:12;;;;;;;;;;;5.40;99.90;;;;;;5071511;28;19995;-77
2022/01/31 06:01:39;;;;;;;;;;;5.40;99.90;;;;;;5071244;28;19924;-78
2022/01/31 06:04:08;;;;;;;;;;;5.40;99.90;;;;;;5055281;28;20258;-78
2022/01/31 06:06:34;;;;;;;;;;;5.40;99.90;;;;;;5072035;28;19925;-77
2022/01/31 06:08:59;;;;;;;;;;;5.40;99.90;;;;;;5055203;28;20327;-77
2022/01/31 06:11:26;;;;;;;;;;;5.40;99.90;;;;;;5071661;28;20018;-78
2022/01/31 06:13:54;;;;;;;;;;;5.40;99.90;;;;;;5055442;28;20372;-77
2022/01/31 06:16:20;;;;;;;;;;;5.40;99.90;;;;;;5055045;28;19936;-76
2022/01/31 06:18:45;;;;;;;;;;;5.30;99.90;;;;;;5074279;28;19924;-77
2022/01/31 06:21:12;;;;;;;;;;;5.30;99.90;;;;;;5061703;28;19972;-79
2022/01/31 06:23:38;;;;;;;;;;;5.40;99.90;;;;;;5057848;28;19931;-77
2022/01/31 06:26:03;;;;;;;;;;;5.40;99.90;;;;;;5074893;28;19925;-79
2022/01/31 06:28:29;;;;;;;;;;;5.40;99.90;;;;;;5066988;28;19971;-80
2022/01/31 06:30:55;;;;;;;;;;;5.30;99.90;;;;;;5091961;28;20358;-77
2022/01/31 06:33:20;;;;;;;;;;;5.30;99.90;;;;;;5065949;28;19935;-77
2022/01/31 06:35:47;;;;;;;;;;;5.30;99.90;;;;;;5074654;28;19932;-79
2022/01/31 06:38:13;;;;;;;;;;;5.30;99.90;;;;;;5088581;28;19974;-78
2022/01/31 06:40:38;;;;;;;;;;;5.40;99.90;;;;;;5074667;28;19967;-80
2022/01/31 06:43:04;;;;;;;;;;;5.40;99.90;;;;;;5057158;28;19924;-80
2022/01/31 06:45:30;;;;;;;;;;;5.50;99.90;;;;;;5058384;28;19928;-77
2022/01/31 06:47:56;;;;;;;;;;;5.50;99.90;;;;;;5057967;28;20331;-77
2022/01/31 06:50:21;;;;;;;;;;;5.60;99.90;;;;;;5074473;28;20273;-78
2022/01/31 06:52:51;;;;;;;;;;;5.70;99.90;;;;;;5041086;28;20007;-77
2022/01/31 06:55:19;;;;;;;;;;;5.70;99.90;;;;;;5058496;28;19950;-78
2022/01/31 06:57:45;;;;;;;;;;;5.70;99.90;;;;;;5074274;28;20451;-78
2022/01/31 07:00:12;;;;;;;;;;;5.80;99.90;;;;;;5057908;28;20011;-78
2022/01/31 07:02:38;;;;;;;;;;;5.80;99.90;;;;;;5074465;28;19924;-79
2022/01/31 07:05:04;;;;;;;;;;;5.70;99.90;;;;;;5074572;28;19925;-77
2022/01/31 07:07:29;;;;;;;;;;;5.90;99.90;;;;;;5073915;28;20404;-76
2022/01/31 07:09:55;;;;;;;;;;;5.90;99.90;;;;;;5074235;28;20305;-77
2022/01/31 07:12:28;;;;;;;;;;;5.90;99.90;;;;;;5057487;28;20274;-78
2022/01/31 07:14:54;;;;;;;;;;;6.00;99.90;;;;;;5074473;28;19932;-77
2022/01/31 07:17:19;;;;;;;;;;;6.00;99.90;;;;;;5037284;28;19937;-77
2022/01/31 07:19:45;;;;;;;;;;;6.00;99.90;;;;;;5066174;28;20397;-79
2022/01/31 07:22:13;;;;;;;;;;;6.10;99.90;;;;;;5056478;28;20285;-83
2022/01/31 07:27:05;;;;;;;;;;;6.10;99.90;;;;;;5108032;28;19932;-76
2022/01/31 07:29:31;;;;;;;;;;;6.10;99.90;;;;;;5107618;28;20267;-76
2022/01/31 07:31:57;;;;;;;;;;;6.10;99.90;;;;;;5057368;28;19970;-76
2022/01/31 07:34:23;;;;;;;;;;;6.00;99.90;;;;;;5073568;28;19924;-77
2022/01/31 07:36:49;;;;;;;;;;;6.00;99.90;;;;;;5057243;28;19977;-75
2022/01/31 07:39:15;;;;;;;;;;;5.90;99.90;;;;;;5073631;28;19925;-77
2022/01/31 07:41:40;;;;;;;;;;;5.90;99.90;;;;;;5073747;28;19928;-76
2022/01/31 07:44:06;;;;;;;;;;;6.00;99.90;;;;;;5056985;28;19949;-75
2022/01/31 07:46:32;;;;;;;;;;;5.90;99.90;;;;;;5073504;28;20416;-75
2022/01/31 07:48:58;;;;;;;;;;;6.00;99.90;;;;;;5073463;28;20026;-76
2022/01/31 07:51:23;;;;;;;;;;;6.00;99.90;;;;;;5084406;28;19970;-77
2022/01/31 07:53:49;;;;;;;;;;;6.00;99.90;;;;;;5056490;28;19928;-79
2022/01/31 07:56:16;;;;;;;;;;;6.00;99.90;;;;;;5073075;28;19935;-80
2022/01/31 07:58:42;;;;;;;;;;;6.00;99.90;;;;;;5070645;28;20728;-76
2022/01/31 08:01:08;;;;;;;;;;;6.00;99.90;;;;;;5072242;28;20038;-76
2022/01/31 08:03:34;;;;;;;;;;;6.00;99.90;;;;;;5072236;28;19932;-76
2022/01/31 08:06:00;;;;;;;;;;;6.00;99.90;;;;;;5056050;28;19928;-77
2022/01/31 08:08:29;;;;;;;;;;;6.00;99.90;;;;;;5106487;28;19932;-76
2022/01/31 08:10:55;;;;;;;;;;;6.00;99.90;;;;;;5089324;28;19935;-76
2022/01/31 08:13:20;;;;;;;;;;;6.00;99.90;;;;;;5101426;28;19952;-76
2022/01/31 08:16:01;;;;;;;;;;;6.00;99.90;;;;;;5060655;28;20376;-75
2022/01/31 08:18:27;;;;;;;;;;;5.90;99.90;;;;;;5092726;28;20381;-77
2022/01/31 08:20:53;;;;;;;;;;;5.90;99.90;;;;;;5086823;28;19925;-77
2022/01/31 08:23:18;;;;;;;;;;;5.90;99.90;;;;;;5041271;28;20387;-83
2022/01/31 08:25:48;;;;;;;;;;;5.90;99.90;;;;;;5056280;28;20277;-80
2022/01/31 08:28:14;;;;;;;;;;;6.00;99.90;;;;;;5056256;28;19970;-79
2022/01/31 08:30:54;;;;;;;;;;;6.00;99.90;;;;;;5039653;28;20153;-78
2022/01/31 08:36:07;;;;;;;;;;;6.10;99.90;;;;;;5027808;28;20386;-79
2022/01/31 08:38:34;;;;;;;;;;;6.00;99.90;;;;;;5079483;28;20400;-79
2022/01/31 08:41:00;;;;;;;;;;;5.90;99.90;;;;;;5055040;28;19933;-80
2022/01/31 08:43:26;;;;;;;;;;;5.90;99.90;;;;;;5072535;28;19981;-79
2022/01/31 08:45:55;;;;;;;;;;;6.00;99.90;;;;;;5056087;28;19964;-80
2022/01/31 08:48:21;;;;;;;;;;;6.00;99.90;;;;;;5055883;28;20314;-86
2022/01/31 08:50:46;;;;;;;;;;;6.10;99.90;;;;;;5055638;28;19925;-79
2022/01/31 08:53:12;;;;;;;;;;;6.00;99.90;;;;;;5055721;28;19925;-78
2022/01/31 08:55:38;;;;;;;;;;;6.00;99.90;;;;;;5055691;28;20357;-79
2022/01/31 08:58:06;;;;;;;;;;;6.10;99.90;;;;;;5071623;28;20001;-81
2022/01/31 09:00:36;;;;;;;;;;;6.20;99.90;;;;;;5074749;28;19928;-82
2022/01/31 09:03:18;;;;;;;;;;;6.20;99.90;;;;;;5042981;28;19924;-79
2022/01/31 09:05:44;;;;;;;;;;;6.20;99.90;;;;;;5104882;28;20031;-76
2022/01/31 09:08:09;;;;;;;;;;;6.20;99.90;;;;;;5074671;28;20409;-76
2022/01/31 09:10:35;;;;;;;;;;;6.20;99.90;;;;;;5058257;28;19974;-76
2022/01/31 09:13:00;;;;;;;;;;;6.10;99.90;;;;;;5073306;28;19935;-79
2022/01/31 09:15:26;;;;;;;;;;;6.10;99.90;;;;;;5082731;28;19958;-76
2022/01/31 09:17:52;;;;;;;;;;;6.10;99.90;;;;;;5057501;28;19978;-77
2022/01/31 09:20:18;;;;;;;;;;;6.00;99.90;;;;;;5057832;28;19924;-79
2022/01/31 09:22:43;;;;;;;;;;;6.20;99.90;;;;;;5071379;28;20635;-79
2022/01/31 09:25:10;;;;;;;;;;;6.20;99.90;;;;;;5074362;28;19928;-81
2022/01/31 09:27:36;;;;;;;;;;;6.30;99.90;;;;;;5057341;28;20077;-79
2022/01/31 09:30:03;;;;;;;;;;;6.30;99.90;;;;;;5057106;28;19924;-80
2022/01/31 09:32:29;;;;;;;;;;;6.50;99.90;;;;;;5072817;28;19924;-79
2022/01/31 09:34:54;;;;;;;;;;;6.50;99.90;;;;;;5057634;28;19932;-78
2022/01/31 09:37:21;;;;;;;;;;;6.50;99.90;;;;;;5074855;28;19927;-80
2022/01/31 09:39:48;;;;;;;;;;;6.50;99.90;;;;;;5037373;28;19930;-76
2022/01/31 09:42:17;;;;;;;;;;;6.50;99.90;;;;;;5055152;28;19925;-77
2022/01/31 09:45:04;;;;;;;;;;;6.50;99.90;;;;;;5071641;28;19925;-77
2022/01/31 09:50:14;;;;;;;;;;;6.80;99.90;;;;;;5091225;28;19931;-75
2022/01/31 09:52:40;;;;;;;;;;;6.90;99.90;;;;;;5077383;28;19932;-76
2022/01/31 09:55:07;;;;;;;;;;;7.00;99.90;;;;;;5045936;28;20007;-77
2022/01/31 09:57:32;;;;;;;;;;;7.10;99.90;;;;;;5078691;28;19930;-77
2022/01/31 09:59:58;;;;;;;;;;;7.20;99.90;;;;;;5112438;28;20499;-78
2022/01/31 10:02:23;;;;;;;;;;;7.10;99.90;;;;;;5061442;28;19935;-80
2022/01/31 10:04:49;;;;;;;;;;;7.20;99.90;;;;;;5078393;28;19971;-78
2022/01/31 10:07:15;;;;;;;;;;;7.20;99.90;;;;;;5044390;28;19931;-79
2022/01/31 10:09:47;;;;;;;;;;;7.00;99.90;;;;;;5061383;28;19928;-77
2022/01/31 10:17:43;;;;;;;;;;;7.00;99.90;;;;;;5110764;28;20065;-77
2022/01/31 10:20:17;;;;;;;;;;;7.00;99.90;;;;;;5094986;28;20014;-78
2022/01/31 10:22:43;;;;;;;;;;;7.10;99.90;;;;;;5111856;28;19924;-77
2022/01/31 10:25:14;;;;;;;;;;;7.10;99.90;;;;;;5059276;28;19924;-78
2022/01/31 10:27:45;;;;;;;;;;;7.10;99.90;;;;;;5095044;28;19935;-79
2022/01/31 10:30:12;;;;;;;;;;;7.10;99.90;;;;;;5075706;28;19928;-79
2022/01/31 10:32:40;;;;;;;;;;;7.10;99.90;;;;;;5061403;28;19974;-79
2022/01/31 10:35:08;;;;;;;;;;;7.20;99.90;;;;;;5077925;28;19924;-79
2022/01/31 10:37:35;;;;;;;;;;;7.20;99.90;;;;;;5090745;28;19924;-80
2022/01/31 10:45:40;;;;;;;;;;;7.30;99.90;;;;;;5110285;28;19931;-78
2022/01/31 10:53:24;;;;;;;;;;;7.40;99.90;;;;;;5076831;28;20285;-79
2022/01/31 10:55:54;;;;;;;;;;;7.50;99.90;;;;;;5057598;28;19978;-81
2022/01/31 10:58:20;;;;;;;;;;;7.50;99.90;;;;;;5076965;28;19935;-80
2022/01/31 11:00:45;;;;;;;;;;;7.60;99.90;;;;;;5059737;28;19932;-81
2022/01/31 11:03:31;;;;;;;;;;;7.60;99.90;;;;;;5059764;28;19924;-77
2022/01/31 11:05:57;;;;;;;;;;;7.70;99.90;;;;;;5060787;28;19928;-78
2022/01/31 11:08:22;;;;;;;;;;;7.80;99.90;;;;;;5107308;28;19924;-78
2022/01/31 11:10:48;;;;;;;;;;;7.80;99.90;;;;;;5094222;28;20258;-78
2022/01/31 11:13:15;;;;;;;;;;;7.80;99.90;;;;;;5060363;28;20408;-79
2022/01/31 11:15:41;;;;;;;;;;;7.70;99.90;;;;;;5092648;28;19942;-79
2022/01/31 11:18:07;;;;;;;;;;;7.70;99.90;;;;;;5110208;28;19924;-79
2022/01/31 11:20:34;;;;;;;;;;;7.60;99.90;;;;;;5094152;28;20011;-78
2022/01/31 11:23:01;;;;;;;;;;;7.70;99.90;;;;;;5060418;28;20014;-79
2022/01/31 11:25:28;;;;;;;;;;;7.70;99.90;;;;;;5076746;28;19928;-79
2022/01/31 11:27:57;;;;;;;;;;;7.80;99.90;;;;;;5075883;28;19971;-80
2022/01/31 11:30:23;;;;;;;;;;;7.90;99.90;;;;;;5073280;28;19963;-79
2022/01/31 11:32:49;;;;;;;;;;;8.30;99.90;;;;;;5056268;28;19925;-79
2022/01/31 11:35:15;;;;;;;;;;;8.60;99.90;;;;;;5073315;28;20009;-79
2022/01/31 11:37:40;;;;;;;;;;;8.90;99.90;;;;;;5046300;28;19990;-80
2022/01/31 11:40:09;;;;;;;;;;;9.00;99.90;;;;;;5110522;28;19931;-78
2022/01/31 11:42:34;;;;;;;;;;;9.30;99.90;;;;;;5110557;28;19924;-78
2022/01/31 11:45:03;;;;;;;;;;;9.10;99.90;;;;;;5076163;28;19935;-78
2022/01/31 11:47:29;;;;;;;;;;;8.90;99.90;;;;;;5076459;28;19960;-78
2022/01/31 11:49:57;;;;;;;;;;;8.60;99.90;;;;;;5048258;28;19928;-78
2022/01/31 11:52:23;;;;;;;;;;;8.50;99.90;;;;;;5061471;28;19978;-78
2022/01/31 11:54:51;;;;;;;;;;;8.30;99.90;;;;;;5090049;28;19931;-81
2022/01/31 11:57:18;;;;;;;;;;;8.10;99.90;;;;;;5093499;28;19954;-79
2022/01/31 11:59:48;;;;;;;;;;;8.10;99.90;;;;;;5110105;28;19935;-80
2022/01/31 12:02:14;;;;;;;;;;;8.00;99.90;;;;;;5109579;28;20014;-80
2022/01/31 12:04:44;;;;;;;;;;;8.00;99.90;;;;;;5076520;28;20364;-79
2022/01/31 12:07:28;;;;;;;;;;;8.00;99.90;;;;;;5059980;28;20288;-80
2022/01/31 12:09:56;;;;;;;;;;;8.00;99.90;;;;;;5093166;28;20439;-78
2022/01/31 12:12:44;;;;;;;;;;;8.00;99.90;;;;;;5075833;28;19924;-78
2022/01/31 12:16:23;;;;;;;;;;;8.00;99.90;;;;;;5062669;28;20300;-77
2022/01/31 12:24:21;;;;;;;;;;;8.00;99.90;;;;;;5070520;28;19990;-77
2022/01/31 12:26:46;;;;;;;;;;;7.90;99.90;;;;;;5058893;28;19924;-78
2022/01/31 12:29:13;;;;;;;;;;;7.90;99.90;;;;;;5058728;28;19928;-78
2022/01/31 12:31:43;;;;;;;;;;;7.90;99.90;;;;;;5058796;28;19995;-78
2022/01/31 12:34:20;;;;;;;;;;;7.90;99.90;;;;;;5075706;28;19947;-78
2022/01/31 12:36:50;;;;;;;;;;;7.90;99.90;;;;;;5058985;28;19924;-82
2022/01/31 12:39:28;;;;;;;;;;;8.00;99.90;;;;;;5076059;28;19981;-77
2022/01/31 12:42:00;;;;;;;;;;;8.10;99.90;;;;;;5059217;28;19973;-78
2022/01/31 12:44:29;;;;;;;;;;;8.10;99.90;;;;;;5059253;28;19935;-78
2022/01/31 12:47:17;;;;;;;;;;;8.00;99.90;;;;;;5109469;28;19931;-77
2022/01/31 12:49:44;;;;;;;;;;;8.00;99.90;;;;;;5109222;28;19977;-78
2022/01/31 12:52:13;;;;;;;;;;;8.00;99.90;;;;;;5066108;28;19935;-79
2022/01/31 12:54:39;;;;;;;;;;;8.00;99.90;;;;;;5108397;28;19967;-80
2022/01/31 12:57:06;;;;;;;;;;;7.90;99.90;;;;;;5057366;28;19928;-78
2022/01/31 12:59:32;;;;;;;;;;;7.90;99.90;;;;;;5082812;28;19931;-77
2022/01/31 13:01:58;;;;;;;;;;;7.90;99.90;;;;;;5105726;28;19925;-77
2022/01/31 13:04:27;;;;;;;;;;;7.80;99.90;;;;;;5105830;28;19925;-78
2022/01/31 13:06:59;;;;;;;;;;;7.80;99.90;;;;;;5071482;28;19925;-78
2022/01/31 13:09:24;;;;;;;;;;;7.80;99.90;;;;;;5072093;28;19925;-78
2022/01/31 13:12:18;;;;;;;;;;;7.90;99.90;;;;;;5072342;28;19928;-83
2022/01/31 13:14:47;;;;;;;;;;;7.80;99.90;;;;;;5052325;28;19978;-75
2022/01/31 13:17:18;;;;;;;;;;;7.80;99.90;;;;;;5055249;28;19931;-80
2022/01/31 13:19:48;;;;;;;;;;;7.90;99.90;;;;;;5071822;28;20019;-77
2022/01/31 13:22:24;;;;;;;;;;;7.80;99.90;;;;;;5105822;28;19968;-77
2022/01/31 13:24:53;;;;;;;;;;;7.80;99.90;;;;;;5057405;28;20077;-76
2022/01/31 13:27:19;;;;;;;;;;;7.80;99.90;;;;;;5073972;28;19924;-76
2022/01/31 13:29:45;;;;;;;;;;;7.80;99.90;;;;;;5052521;28;19929;-77
2022/01/31 13:32:16;;;;;;;;;;;7.80;99.90;;;;;;5055832;28;20015;-79
2022/01/31 13:34:43;;;;;;;;;;;7.80;99.90;;;;;;5075854;28;19935;-80
2022/01/31 13:37:27;;;;;;;;;;;7.80;99.90;;;;;;5059110;28;19924;-79
2022/01/31 13:39:57;;;;;;;;;;;7.80;99.90;;;;;;5059050;28;19931;-83
2022/01/31 13:42:30;;;;;;;;;;;7.80;99.90;;;;;;5059132;28;19924;-78
2022/01/31 13:44:57;;;;;;;;;;;7.90;99.90;;;;;;5075119;28;19924;-79
2022/01/31 13:47:54;;;;;;;;;;;7.90;99.90;;;;;;5074892;28;19950;-78
2022/01/31 13:50:29;;;;;;;;;;;8.20;99.90;;;;;;5059049;28;19932;-76
2022/01/31 13:52:59;;;;;;;;;;;8.30;99.90;;;;;;5072936;28;20399;-77
2022/01/31 13:55:25;;;;;;;;;;;8.30;99.90;;;;;;5056971;28;19989;-80
2022/01/31 13:57:51;;;;;;;;;;;8.40;99.90;;;;;;5075327;28;19951;-78
2022/01/31 14:00:17;;;;;;;;;;;8.50;99.90;;;;;;5075800;28;20333;-79
2022/01/31 14:02:57;;;;;;;;;;;8.50;99.90;;;;;;5094897;28;20019;-78
2022/01/31 14:05:24;;;;;;;;;;;8.60;99.90;;;;;;5110966;28;19924;-79
2022/01/31 14:08:04;;;;;;;;;;;8.70;99.90;;;;;;5045493;28;19974;-80
2022/01/31 14:10:31;;;;;;;;;;;8.70;99.90;;;;;;5079428;28;19963;-78
2022/01/31 14:12:58;;;;;;;;;;;8.60;99.90;;;;;;5041735;28;19925;-80
2022/01/31 14:15:24;;;;;;;;;;;8.40;99.90;;;;;;5041858;28;19939;-79
2022/01/31 14:17:50;;;;;;;;;;;8.30;99.90;;;;;;5070747;28;19932;-77
2022/01/31 14:20:16;;;;;;;;;;;8.10;99.90;;;;;;5078056;28;19924;-81
2022/01/31 14:22:41;;;;;;;;;;;7.90;99.90;;;;;;5061421;28;20379;-77
2022/01/31 14:25:08;;;;;;;;;;;7.70;99.90;;;;;;5108849;28;19962;-78
2022/01/31 14:27:34;;;;;;;;;;;7.50;99.90;;;;;;5092410;28;19924;-79
2022/01/31 14:29:59;;;;;;;;;;;7.40;99.90;;;;;;5060046;28;19981;-84
2022/01/31 14:32:29;;;;;;;;;;;7.20;99.90;;;;;;5077367;28;19931;-78
2022/01/31 14:34:55;;;;;;;;;;;7.20;99.90;;;;;;5061142;28;19994;-78
2022/01/31 14:37:21;;;;;;;;;;;7.10;99.90;;;;;;5094808;28;20308;-78
2022/01/31 14:40:03;;;;;;;;;;;7.10;99.90;;;;;;5059848;28;19924;-80
2022/01/31 14:47:47;;;;;;;;;;;7.00;99.90;;;;;;5076146;28;20014;-79
2022/01/31 14:50:14;;;;;;;;;;;7.00;99.90;;;;;;5077319;28;19924;-78
2022/01/31 14:52:40;;;;;;;;;;;7.00;99.90;;;;;;5076344;28;19932;-77
2022/01/31 14:55:16;;;;;;;;;;;7.00;99.90;;;;;;5075488;28;19931;-78
2022/01/31 14:57:42;;;;;;;;;;;7.00;99.90;;;;;;5075490;28;19923;-78
2022/01/31 15:00:12;;;;;;;;;;;7.00;99.90;;;;;;5042737;28;19977;-79
2022/01/31 15:02:38;;;;;;;;;;;6.90;99.90;;;;;;5107770;28;19924;-76
2022/01/31 15:05:07;;;;;;;;;;;6.90;99.90;;;;;;5095014;28;19931;-85
2022/01/31 15:07:33;;;;;;;;;;;6.90;99.90;;;;;;5111292;28;19930;-76
2022/01/31 15:09:58;;;;;;;;;;;6.90;99.90;;;;;;5060809;28;20011;-78